createdAt,value
2018-07-20T00:00:53.242Z,16.28
2018-07-20T00:03:25.405Z,16.30
2018-07-20T00:05:57.495Z,16.27
2018-07-20T00:08:29.566Z,16.27
2018-07-20T00:11:01.651Z,16.22
2018-07-20T00:13:33.741Z,16.22
2018-07-20T00:16:05.831Z,16.18
2018-07-20T00:18:37.959Z,16.15
2018-07-20T00:21:10.170Z,16.08
2018-07-20T00:23:42.334Z,15.93
2018-07-20T00:26:14.406Z,15.95
2018-07-20T00:28:46.508Z,15.94
2018-07-20T00:31:19.431Z,15.91
2018-07-20T00:33:51.523Z,16.03
2018-07-20T00:36:23.684Z,16.05
2018-07-20T00:38:55.893Z,15.98
2018-07-20T00:41:27.999Z,15.85
2018-07-20T00:44:00.091Z,15.78
2018-07-20T00:46:32.147Z,15.81
2018-07-20T00:49:04.287Z,15.69
2018-07-20T00:51:36.394Z,15.76
2018-07-20T00:54:08.533Z,15.75
2018-07-20T00:56:40.681Z,15.65
2018-07-20T00:59:12.786Z,15.55
2018-07-20T01:01:44.916Z,15.56
2018-07-20T01:04:17.013Z,15.56
2018-07-20T01:06:49.112Z,15.54
2018-07-20T01:09:21.199Z,15.43
2018-07-20T01:11:53.268Z,15.35
2018-07-20T01:14:25.319Z,15.31
2018-07-20T01:16:57.464Z,15.34
2018-07-20T01:19:29.603Z,15.33
2018-07-20T01:22:01.675Z,15.21
2018-07-20T01:24:33.726Z,15.26
2018-07-20T01:27:05.819Z,15.28
2018-07-20T01:29:37.875Z,15.18
2018-07-20T01:32:10.008Z,15.10
2018-07-20T01:34:42.108Z,15.10
2018-07-20T01:37:14.170Z,15.26
2018-07-20T01:39:46.201Z,15.32
2018-07-20T01:42:18.276Z,15.28
2018-07-20T01:44:50.309Z,15.31
2018-07-20T01:47:22.428Z,15.18
2018-07-20T01:49:54.518Z,15.03
2018-07-20T01:52:26.586Z,15.00
2018-07-20T01:54:58.721Z,15.04
2018-07-20T01:57:30.743Z,15.03
2018-07-20T02:00:02.919Z,14.98
2018-07-20T02:02:34.996Z,14.95
2018-07-20T02:05:07.053Z,15.00
2018-07-20T02:07:39.124Z,14.90
2018-07-20T02:10:11.218Z,14.79
2018-07-20T02:12:43.297Z,14.79
2018-07-20T02:15:15.378Z,14.88
2018-07-20T02:17:47.490Z,14.99
2018-07-20T02:20:19.580Z,14.89
2018-07-20T02:22:51.671Z,14.90
2018-07-20T02:25:23.780Z,14.77
2018-07-20T02:27:55.879Z,14.81
2018-07-20T02:30:27.976Z,14.70
2018-07-20T02:33:00.116Z,14.83
2018-07-20T02:35:32.176Z,14.82
2018-07-20T02:38:04.303Z,14.76
2018-07-20T02:40:36.369Z,14.73
2018-07-20T02:43:08.499Z,14.70
2018-07-20T02:45:40.603Z,14.64
2018-07-20T02:48:12.725Z,14.55
2018-07-20T02:50:44.942Z,14.54
2018-07-20T02:53:17.067Z,14.45
2018-07-20T02:55:49.208Z,14.33
2018-07-20T02:58:21.284Z,14.34
2018-07-20T03:00:53.368Z,14.28
2018-07-20T03:03:25.507Z,14.21
2018-07-20T03:05:57.558Z,14.33
2018-07-20T03:08:29.672Z,14.39
2018-07-20T03:11:01.805Z,14.38
2018-07-20T03:13:33.933Z,14.41
2018-07-20T03:16:06.057Z,14.31
2018-07-20T03:18:38.131Z,14.34
2018-07-20T03:21:10.467Z,14.37
2018-07-20T03:23:42.543Z,14.31
2018-07-20T03:26:14.608Z,14.44
2018-07-20T03:28:46.720Z,14.39
2018-07-20T03:31:19.255Z,14.45
2018-07-20T03:33:51.395Z,14.42
2018-07-20T03:36:23.486Z,14.44
2018-07-20T03:38:55.549Z,14.42
2018-07-20T03:41:27.693Z,14.45
2018-07-20T03:43:59.739Z,14.37
2018-07-20T03:46:31.802Z,14.39
2018-07-20T03:49:04.329Z,14.48
2018-07-20T03:51:36.313Z,14.52
2018-07-20T03:54:08.386Z,14.56
2018-07-20T03:56:40.444Z,14.44
2018-07-20T03:59:12.618Z,14.43
2018-07-20T04:01:44.748Z,14.61
2018-07-20T04:04:16.821Z,14.75
2018-07-20T04:06:48.904Z,14.91
2018-07-20T04:09:21.007Z,14.94
2018-07-20T04:11:53.118Z,14.92
2018-07-20T04:14:25.192Z,14.97
2018-07-20T04:16:57.298Z,15.09
2018-07-20T04:19:29.395Z,15.16
2018-07-20T04:22:01.477Z,15.22
2018-07-20T04:24:33.576Z,15.26
2018-07-20T04:27:05.709Z,15.26
2018-07-20T04:29:37.877Z,15.26
2018-07-20T04:32:10.154Z,15.40
2018-07-20T04:34:42.275Z,15.51
2018-07-20T04:37:14.396Z,15.83
2018-07-20T04:39:46.549Z,16.36
2018-07-20T04:42:18.664Z,17.48
2018-07-20T04:44:50.800Z,18.75
2018-07-20T04:47:22.863Z,20.50
2018-07-20T04:49:54.984Z,21.56
2018-07-20T04:52:27.062Z,22.00
2018-07-20T04:54:59.186Z,22.94
2018-07-20T04:57:31.279Z,22.71
2018-07-20T05:00:03.749Z,23.56
2018-07-20T05:02:35.928Z,24.09
2018-07-20T05:05:08.093Z,24.76
2018-07-20T05:07:40.181Z,25.80
2018-07-20T05:10:12.374Z,26.00
2018-07-20T05:12:44.466Z,26.20
2018-07-20T05:15:16.555Z,26.37
2018-07-20T05:17:48.611Z,26.27
2018-07-20T05:20:20.632Z,27.05
2018-07-20T05:22:52.718Z,27.93
2018-07-20T05:25:24.835Z,27.43
2018-07-20T05:27:56.912Z,27.50
2018-07-20T05:30:28.965Z,28.21
2018-07-20T05:33:01.009Z,27.53
2018-07-20T05:35:33.060Z,26.46
2018-07-20T05:38:05.099Z,25.85
2018-07-20T05:40:37.179Z,25.95
2018-07-20T05:43:09.215Z,25.81
2018-07-20T05:45:41.311Z,27.08
2018-07-20T05:48:13.398Z,26.59
2018-07-20T05:50:45.492Z,26.11
2018-07-20T05:53:17.558Z,26.83
2018-07-20T05:55:49.630Z,27.15
2018-07-20T05:58:21.664Z,27.60
2018-07-20T06:00:53.757Z,27.57
2018-07-20T06:03:26.514Z,27.80
2018-07-20T06:05:58.604Z,28.73
2018-07-20T06:08:30.733Z,29.18
2018-07-20T06:11:02.808Z,29.72
2018-07-20T06:13:34.856Z,29.86
2018-07-20T06:16:06.955Z,29.78
2018-07-20T06:18:39.049Z,30.06
2018-07-20T06:21:11.106Z,31.42
2018-07-20T06:23:44.234Z,31.02
2018-07-20T06:26:16.303Z,31.92
2018-07-20T06:28:48.409Z,31.85
2018-07-20T06:31:20.506Z,31.88
2018-07-20T06:33:52.545Z,32.98
2018-07-20T06:36:24.614Z,32.63
2018-07-20T06:38:56.685Z,32.64
2018-07-20T06:41:28.716Z,31.93
2018-07-20T06:44:01.136Z,31.47
2018-07-20T06:46:33.639Z,30.46
2018-07-20T06:49:06.414Z,31.62
2018-07-20T06:51:38.483Z,31.62
2018-07-20T06:54:10.521Z,31.88
2018-07-20T06:56:42.584Z,30.50
2018-07-20T06:59:14.724Z,29.85
2018-07-20T07:01:46.820Z,30.53
2018-07-20T07:04:18.959Z,30.10
2018-07-20T07:06:51.017Z,30.36
2018-07-20T07:09:23.154Z,30.95
2018-07-20T07:11:55.286Z,31.73
2018-07-20T07:14:27.418Z,32.57
2018-07-20T07:16:59.716Z,32.52
2018-07-20T07:19:31.820Z,32.70
2018-07-20T07:22:03.987Z,32.52
2018-07-20T07:24:36.097Z,31.48
2018-07-20T07:27:08.231Z,31.94
2018-07-20T07:29:40.368Z,31.78
2018-07-20T07:32:12.578Z,31.22
2018-07-20T07:34:44.714Z,31.52
2018-07-20T07:37:16.825Z,31.66
2018-07-20T07:39:48.934Z,31.58
2018-07-20T07:42:21.041Z,31.85
2018-07-20T07:44:53.149Z,32.00
2018-07-20T07:47:25.276Z,30.58
2018-07-20T07:49:57.436Z,31.61
2018-07-20T07:52:29.540Z,31.40
2018-07-20T07:55:01.620Z,32.24
2018-07-20T07:57:33.714Z,31.17
2018-07-20T08:00:05.806Z,30.60
2018-07-20T08:02:37.856Z,31.32
2018-07-20T08:05:09.964Z,32.03
2018-07-20T08:07:42.421Z,32.03
2018-07-20T08:10:14.837Z,31.88
2018-07-20T08:12:46.889Z,31.44
2018-07-20T08:15:19.030Z,32.11
2018-07-20T08:17:51.120Z,31.68
2018-07-20T08:20:23.292Z,32.06
2018-07-20T08:22:55.456Z,32.17
2018-07-20T08:25:27.517Z,33.22
2018-07-20T08:27:59.644Z,33.62
2018-07-20T08:30:31.888Z,33.53
2018-07-20T08:33:04.583Z,33.00
2018-07-20T08:35:36.733Z,31.51
2018-07-20T08:38:09.051Z,31.27
2018-07-20T08:40:41.291Z,30.94
2018-07-20T08:43:13.406Z,31.93
2018-07-20T08:45:45.526Z,32.32
2018-07-20T08:48:17.614Z,31.06
2018-07-20T08:50:49.694Z,30.97
2018-07-20T08:53:21.783Z,31.62
2018-07-20T08:55:53.828Z,32.68
2018-07-20T08:58:25.990Z,32.20
2018-07-20T09:00:58.144Z,32.30
2018-07-20T09:03:30.329Z,31.95
2018-07-20T09:06:02.302Z,33.14
2018-07-20T09:08:34.368Z,34.14
2018-07-20T09:11:06.542Z,33.50
2018-07-20T09:13:38.726Z,34.02
2018-07-20T09:16:10.747Z,34.05
2018-07-20T09:18:42.873Z,34.98
2018-07-20T09:21:15.021Z,33.68
2018-07-20T09:23:47.138Z,33.95
2018-07-20T09:26:19.235Z,33.89
2018-07-20T09:28:51.373Z,34.12
2018-07-20T09:31:23.495Z,34.73
2018-07-20T09:33:55.612Z,35.40
2018-07-20T09:36:27.719Z,35.05
2018-07-20T09:38:59.820Z,34.38
2018-07-20T09:41:31.912Z,34.49
2018-07-20T09:44:04.008Z,34.57
2018-07-20T09:46:36.139Z,33.89
2018-07-20T09:49:08.257Z,34.04
2018-07-20T09:51:40.346Z,34.76
2018-07-20T09:54:12.433Z,35.50
2018-07-20T09:56:45.639Z,34.71
2018-07-20T09:59:17.765Z,34.88
2018-07-20T10:01:49.841Z,35.29
2018-07-20T10:04:21.925Z,36.07
2018-07-20T10:06:54.053Z,36.13
2018-07-20T10:09:26.121Z,35.33
2018-07-20T10:11:58.230Z,35.42
2018-07-20T10:14:30.361Z,34.98
2018-07-20T10:17:02.494Z,35.70
2018-07-20T10:19:34.555Z,35.45
2018-07-20T10:22:06.832Z,35.71
2018-07-20T10:24:38.912Z,35.98
2018-07-20T10:29:42.673Z,35.30
2018-07-20T10:32:14.768Z,34.71
2018-07-20T10:34:46.840Z,35.22
2018-07-20T10:37:18.927Z,35.61
2018-07-20T10:39:51.006Z,34.30
2018-07-20T10:42:23.113Z,35.00
2018-07-20T10:44:55.207Z,36.24
2018-07-20T10:47:27.271Z,36.00
2018-07-20T10:49:59.330Z,35.29
2018-07-20T10:52:31.401Z,35.94
2018-07-20T10:55:03.497Z,35.82
2018-07-20T10:57:35.597Z,35.84
2018-07-20T11:00:08.128Z,36.59
2018-07-20T11:02:40.251Z,36.21
2018-07-20T11:05:12.319Z,37.37
2018-07-20T11:07:44.366Z,37.16
2018-07-20T11:10:16.436Z,36.48
2018-07-20T11:12:48.482Z,35.69
2018-07-20T11:15:20.538Z,35.64
2018-07-20T11:17:52.589Z,35.88
2018-07-20T11:20:24.808Z,36.89
2018-07-20T11:22:56.868Z,35.83
2018-07-20T11:25:28.951Z,35.89
2018-07-20T11:28:01.040Z,36.19
2018-07-20T11:30:33.137Z,35.49
2018-07-20T11:33:06.272Z,36.40
2018-07-20T11:35:38.378Z,36.55
2018-07-20T11:38:10.487Z,37.21
2018-07-20T11:40:42.551Z,37.78
2018-07-20T11:43:15.642Z,37.89
2018-07-20T11:45:47.771Z,37.50
2018-07-20T11:48:20.298Z,35.62
2018-07-20T11:50:52.413Z,34.89
2018-07-20T11:53:24.514Z,36.20
2018-07-20T11:55:56.641Z,36.58
2018-07-20T11:58:28.720Z,35.89
2018-07-20T12:01:00.769Z,34.94
2018-07-20T12:03:32.803Z,34.87
2018-07-20T12:06:05.005Z,34.59
2018-07-20T12:08:37.472Z,34.47
2018-07-20T12:11:09.639Z,34.69
2018-07-20T12:13:41.710Z,34.24
2018-07-20T12:16:13.817Z,34.80
2018-07-20T12:18:45.909Z,34.94
2018-07-20T12:21:17.971Z,35.50
2018-07-20T12:23:50.441Z,35.63
2018-07-20T12:26:23.621Z,35.88
2018-07-20T12:28:55.632Z,35.47
2018-07-20T12:31:27.743Z,37.09
2018-07-20T12:33:59.783Z,37.69
2018-07-20T12:36:31.994Z,38.43
2018-07-20T12:39:06.671Z,38.73
2018-07-20T12:41:39.107Z,38.53
2018-07-20T12:44:11.762Z,37.45
2018-07-20T12:46:43.858Z,38.18
2018-07-20T12:49:15.883Z,37.79
2018-07-20T12:51:48.292Z,38.01
2018-07-20T12:54:21.124Z,38.16
2018-07-20T12:56:53.245Z,38.63
2018-07-20T12:59:25.328Z,40.12
2018-07-20T13:01:57.437Z,39.91
2018-07-20T13:04:29.484Z,39.33
2018-07-20T13:07:01.631Z,39.76
2018-07-20T13:09:33.738Z,40.45
2018-07-20T13:12:05.950Z,39.35
2018-07-20T13:14:37.961Z,37.90
2018-07-20T13:17:10.142Z,38.18
2018-07-20T13:19:42.241Z,37.84
2018-07-20T13:22:14.400Z,38.46
2018-07-20T13:24:46.475Z,39.68
2018-07-20T13:27:18.520Z,39.80
2018-07-20T13:29:50.589Z,38.24
2018-07-20T13:32:22.695Z,37.86
2018-07-20T13:34:54.829Z,38.84
2018-07-20T13:37:26.899Z,37.83
2018-07-20T13:39:58.943Z,37.07
2018-07-20T13:42:31.074Z,37.30
2018-07-20T13:45:03.178Z,38.55
2018-07-20T13:47:36.071Z,39.02
2018-07-20T13:50:08.124Z,39.03
2018-07-20T13:52:46.986Z,39.01
2018-07-20T13:55:19.014Z,39.50
2018-07-20T13:57:51.095Z,40.39
2018-07-20T14:00:23.139Z,39.99
2018-07-20T14:02:55.174Z,40.92
2018-07-20T14:05:28.364Z,39.63
2018-07-20T14:08:00.425Z,38.86
2018-07-20T14:10:32.524Z,38.28
2018-07-20T14:13:04.681Z,36.35
2018-07-20T14:15:36.745Z,35.25
2018-07-20T14:18:08.859Z,34.50
2018-07-20T14:20:41.203Z,34.90
2018-07-20T14:23:13.315Z,35.70
2018-07-20T14:25:45.410Z,34.27
2018-07-20T14:28:17.480Z,35.84
2018-07-20T14:30:49.542Z,36.88
2018-07-20T14:33:21.791Z,37.66
2018-07-20T14:35:53.850Z,37.81
2018-07-20T14:38:26.024Z,38.84
2018-07-20T14:40:58.132Z,37.41
2018-07-20T14:43:30.152Z,38.84
2018-07-20T14:46:02.524Z,37.35
2018-07-20T14:48:34.599Z,38.29
2018-07-20T14:51:06.840Z,39.15
2018-07-20T14:53:38.875Z,39.25
2018-07-20T14:56:10.947Z,38.95
2018-07-20T14:58:43.009Z,37.65
2018-07-20T15:01:15.099Z,37.50
2018-07-20T15:03:47.593Z,36.83
2018-07-20T15:06:19.639Z,37.65
2018-07-20T15:08:51.703Z,38.17
2018-07-20T15:11:23.724Z,38.84
2018-07-20T15:13:56.070Z,37.37
2018-07-20T15:16:28.130Z,37.00
2018-07-20T15:19:00.273Z,38.88
2018-07-20T15:21:32.302Z,40.09
2018-07-20T15:24:04.411Z,38.95
2018-07-20T15:26:36.495Z,38.45
2018-07-20T15:29:08.637Z,39.15
2018-07-20T15:31:40.711Z,38.87
2018-07-20T15:34:13.157Z,38.83
2018-07-20T15:36:45.241Z,39.01
2018-07-20T15:39:17.283Z,38.65
2018-07-20T15:41:49.349Z,38.49
2018-07-20T15:44:21.433Z,36.43
2018-07-20T15:46:53.767Z,37.43
2018-07-20T15:49:25.564Z,37.55
2018-07-20T15:53:35.610Z,38.19
2018-07-20T15:54:29.740Z,38.40
2018-07-20T15:57:01.775Z,37.31
2018-07-20T15:59:33.868Z,36.21
2018-07-20T16:02:06.038Z,36.26
2018-07-20T16:04:38.239Z,37.39
2018-07-20T16:07:10.302Z,37.80
2018-07-20T16:09:42.441Z,37.71
2018-07-20T16:12:15.919Z,36.57
2018-07-20T16:14:48.074Z,36.84
2018-07-20T16:17:20.211Z,37.45
2018-07-20T16:19:52.396Z,37.33
2018-07-20T16:22:24.540Z,37.55
2018-07-20T16:24:57.082Z,37.94
2018-07-20T16:27:29.203Z,37.62
2018-07-20T16:30:01.594Z,37.87
2018-07-20T16:32:33.723Z,36.84
2018-07-20T16:35:05.954Z,34.83
2018-07-20T16:37:38.034Z,35.33
2018-07-20T16:40:10.169Z,35.50
2018-07-20T16:42:42.270Z,34.89
2018-07-20T16:45:14.418Z,34.79
2018-07-20T16:47:46.539Z,34.21
2018-07-20T16:50:18.633Z,33.68
2018-07-20T16:52:50.841Z,33.62
2018-07-20T16:55:22.950Z,33.47
2018-07-20T16:57:55.085Z,33.10
2018-07-20T17:00:27.233Z,33.10
2018-07-20T17:02:59.563Z,32.68
2018-07-20T17:05:31.702Z,32.60
2018-07-20T17:08:03.811Z,32.07
2018-07-20T17:10:35.956Z,32.22
2018-07-20T17:13:08.003Z,32.07
2018-07-20T17:15:40.083Z,31.79
2018-07-20T17:18:12.175Z,31.73
2018-07-20T17:20:44.239Z,31.72
2018-07-20T17:23:16.320Z,31.61
2018-07-20T17:25:48.414Z,31.21
2018-07-20T17:28:20.467Z,30.89
2018-07-20T17:30:52.594Z,30.77
2018-07-20T17:33:24.750Z,30.68
2018-07-20T17:35:56.851Z,30.46
2018-07-20T17:38:28.899Z,30.23
2018-07-20T17:41:00.973Z,30.31
2018-07-20T17:43:33.044Z,30.28
2018-07-20T17:46:05.574Z,30.18
2018-07-20T17:48:37.667Z,30.16
2018-07-20T17:51:09.787Z,29.98
2018-07-20T17:53:41.887Z,29.94
2018-07-20T17:56:14.099Z,29.82
2018-07-20T17:58:46.146Z,29.78
2018-07-20T18:01:18.187Z,29.74
2018-07-20T18:03:50.279Z,29.63
2018-07-20T18:06:22.347Z,29.37
2018-07-20T18:08:54.487Z,29.28
2018-07-20T18:11:26.585Z,29.09
2018-07-20T18:13:58.655Z,28.96
2018-07-20T18:16:30.733Z,28.87
2018-07-20T18:19:02.833Z,28.76
2018-07-20T18:21:34.928Z,28.66
2018-07-20T18:24:06.988Z,28.50
2018-07-20T18:26:39.107Z,28.44
2018-07-20T18:29:11.211Z,28.22
2018-07-20T18:31:43.274Z,27.98
2018-07-20T18:34:15.338Z,27.83
2018-07-20T18:36:47.515Z,27.66
2018-07-20T18:39:19.573Z,27.48
2018-07-20T18:41:51.691Z,27.29
2018-07-20T18:44:23.829Z,27.18
2018-07-20T18:46:55.976Z,27.06
2018-07-20T18:49:28.067Z,26.79
2018-07-20T18:52:00.139Z,26.59
2018-07-20T18:54:32.202Z,26.52
2018-07-20T18:57:04.348Z,26.40
2018-07-20T18:59:36.444Z,26.28
2018-07-20T19:02:09.222Z,26.08
2018-07-20T19:04:41.238Z,25.95
2018-07-20T19:07:13.330Z,25.82
2018-07-20T19:09:45.377Z,25.76
2018-07-20T19:12:17.439Z,25.62
2018-07-20T19:14:49.899Z,25.57
2018-07-20T19:17:21.967Z,25.60
2018-07-20T19:19:54.074Z,25.43
2018-07-20T19:22:26.155Z,25.27
2018-07-20T19:24:58.205Z,25.11
2018-07-20T19:27:30.272Z,24.92
2018-07-20T19:30:02.355Z,24.89
2018-07-20T19:32:34.435Z,24.73
2018-07-20T19:35:07.312Z,24.53
2018-07-20T19:37:39.413Z,24.37
2018-07-20T19:40:11.533Z,24.34
2018-07-20T19:42:43.692Z,24.32
2018-07-20T19:45:16.891Z,24.28
2018-07-20T19:47:48.963Z,24.25
2018-07-20T19:50:21.071Z,24.14
2018-07-20T19:52:53.185Z,24.05
2018-07-20T19:55:25.238Z,23.88
2018-07-20T19:57:57.362Z,23.75
2018-07-20T20:00:29.419Z,23.71
2018-07-20T20:03:01.500Z,23.69
2018-07-20T20:05:33.577Z,23.50
2018-07-20T20:08:05.647Z,23.33
2018-07-20T20:10:37.696Z,23.26
2018-07-20T20:13:09.762Z,23.19
2018-07-20T20:15:41.997Z,23.30
2018-07-20T20:18:14.028Z,23.24
2018-07-20T20:20:46.075Z,23.08
2018-07-20T20:23:18.139Z,23.03
2018-07-20T20:25:50.229Z,22.95
2018-07-20T20:28:22.306Z,22.94
2018-07-20T20:30:54.360Z,22.80
2018-07-20T20:33:26.393Z,22.67
2018-07-20T20:35:58.518Z,22.64
2018-07-20T20:38:30.578Z,22.53
2018-07-20T20:41:02.676Z,22.39
2018-07-20T20:43:34.798Z,22.33
2018-07-20T20:46:06.875Z,22.24
2018-07-20T20:48:38.954Z,22.08
2018-07-20T20:51:11.022Z,21.98
2018-07-20T20:53:43.120Z,22.03
2018-07-20T20:56:15.190Z,21.99
2018-07-20T20:58:47.323Z,21.95
2018-07-20T21:01:19.446Z,22.03
2018-07-20T21:03:51.487Z,22.12
2018-07-20T21:06:23.589Z,22.09
2018-07-20T21:08:55.679Z,21.98
2018-07-20T21:11:28.180Z,21.97
2018-07-20T21:14:00.276Z,21.84
2018-07-20T21:16:32.323Z,21.85
2018-07-20T21:19:04.440Z,21.83
2018-07-20T21:21:37.093Z,21.95
2018-07-20T21:24:09.157Z,21.91
2018-07-20T21:26:41.193Z,21.77
2018-07-20T21:29:13.243Z,21.68
2018-07-20T21:31:45.307Z,21.57
2018-07-20T21:34:17.372Z,21.48
2018-07-20T21:36:49.453Z,21.51
2018-07-20T21:39:21.515Z,21.69
2018-07-20T21:41:53.571Z,21.60
2018-07-20T21:44:25.685Z,21.63
2018-07-20T21:46:57.805Z,21.65
2018-07-20T21:49:29.891Z,21.62
2018-07-20T21:52:01.987Z,21.59
2018-07-20T21:54:34.199Z,21.47
2018-07-20T21:57:06.420Z,21.49
2018-07-20T21:59:38.576Z,21.50
2018-07-20T22:02:10.701Z,21.44
2018-07-20T22:04:42.791Z,21.32
2018-07-20T22:07:14.956Z,21.41
2018-07-20T22:09:47.067Z,21.36
2018-07-20T22:12:19.167Z,21.28
2018-07-20T22:14:51.307Z,21.26
2018-07-20T22:17:23.401Z,21.30
2018-07-20T22:19:55.467Z,21.20
2018-07-20T22:22:27.591Z,21.19
2018-07-20T22:24:59.712Z,21.15
2018-07-20T22:27:31.777Z,21.09
2018-07-20T22:30:05.237Z,21.06
2018-07-20T22:32:37.342Z,21.03
2018-07-20T22:35:09.484Z,21.07
2018-07-20T22:37:41.584Z,21.02
2018-07-20T22:40:13.684Z,20.98
2018-07-20T22:42:45.796Z,21.09
2018-07-20T22:45:17.928Z,21.00
2018-07-20T22:47:50.018Z,21.05
2018-07-20T22:50:22.103Z,21.15
2018-07-20T22:52:54.190Z,21.20
2018-07-20T22:55:26.292Z,21.13
2018-07-20T22:57:58.408Z,21.09
2018-07-20T23:00:30.557Z,20.97
2018-07-20T23:03:02.662Z,20.98
2018-07-20T23:05:34.768Z,20.86
2018-07-20T23:08:06.896Z,20.69
2018-07-20T23:10:39.067Z,20.55
2018-07-20T23:13:11.147Z,20.59
2018-07-20T23:15:43.304Z,20.52
2018-07-20T23:18:15.426Z,20.44
2018-07-20T23:20:47.563Z,20.48
2018-07-20T23:23:19.754Z,20.42
2018-07-20T23:25:51.862Z,20.34
2018-07-20T23:28:23.939Z,20.22
2018-07-20T23:30:56.044Z,20.19
2018-07-20T23:33:28.125Z,19.93
2018-07-20T23:36:00.226Z,19.85
2018-07-20T23:38:32.332Z,19.80
2018-07-20T23:41:04.446Z,19.92
2018-07-20T23:43:36.504Z,19.90
2018-07-20T23:46:08.611Z,19.82
2018-07-20T23:48:40.723Z,19.93
2018-07-20T23:51:12.818Z,19.93
2018-07-20T23:53:44.924Z,19.91
2018-07-20T23:56:17.080Z,20.07
2018-07-20T23:58:49.182Z,19.99
